Time;durP1;ratioP1;P1;durP2;ratioP2;P2;SDS_P1;SDS_P2;PMS_P1;PMS_P2;Temp;Humidity;BMP_temperature;BMP_pressure;BME280_temperature;BME280_humidity;BME280_pressure;Samples;Min_cycle;Max_cycle;Signal;HPM_P1;HPM_P2
2022/08/17 00:00:13;;;;;;;;;14.75;13.75;;;29.03;97116.55;;;;119153;1187;25629;-65
2022/08/17 00:03:14;;;;;;;;;17.50;14.50;;;29.06;97118.94;;;;119124;1188;24773;-65
2022/08/17 00:05:51;;;;;;;;;10.50;10.00;;;29.06;97119.11;;;;119108;1188;25320;-66
2022/08/17 00:08:26;;;;;;;;;14.25;11.75;;;29.03;97121.11;;;;119140;1188;24970;-66
2022/08/17 00:10:55;;;;;;;;;13.00;13.00;;;29.01;97122.14;;;;119121;1188;25157;-65
2022/08/17 00:13:35;;;;;;;;;8.25;8.25;;;28.98;97117.58;;;;119140;1188;25779;-65
2022/08/17 00:16:08;;;;;;;;;14.75;14.00;;;28.98;97113.35;;;;119149;1187;26186;-66
2022/08/17 00:18:37;;;;;;;;;15.75;13.50;;;28.98;97110.29;;;;119131;1189;25546;-64
2022/08/17 00:21:25;;;;;;;;;17.00;13.25;;;29.00;97107.68;;;;119150;1188;25306;-65
2022/08/17 00:24:14;;;;;;;;;14.00;13.75;;;29.04;97106.48;;;;119141;1188;24793;-65
2022/08/17 00:26:42;;;;;;;;;10.00;9.00;;;29.03;97106.36;;;;119150;1188;25404;-65
2022/08/17 00:29:12;;;;;;;;;9.75;9.75;;;28.98;97103.70;;;;119124;1188;26372;-65
2022/08/17 00:31:48;;;;;;;;;12.75;11.50;;;28.96;97103.48;;;;119155;1187;24960;-64
2022/08/17 00:34:16;;;;;;;;;21.00;15.00;;;28.94;97103.02;;;;119160;1188;25548;-65
2022/08/17 00:36:44;;;;;;;;;14.50;12.50;;;28.93;97100.86;;;;119162;1187;25138;-65
2022/08/17 00:39:12;;;;;;;;;21.75;19.50;;;28.91;97096.55;;;;119135;1187;24986;-65
2022/08/17 00:41:40;;;;;;;;;22.25;19.75;;;28.88;97093.41;;;;119096;1189;25179;-65
2022/08/17 00:44:10;;;;;;;;;18.50;16.25;;;28.87;97094.77;;;;119098;1189;26686;-65
2022/08/17 00:46:41;;;;;;;;;10.00;8.00;;;28.86;97091.83;;;;119030;1189;25165;-65
2022/08/17 00:49:10;;;;;;;;;19.25;14.00;;;28.85;97089.55;;;;119075;1188;25094;-65
2022/08/17 00:51:57;;;;;;;;;12.00;11.25;;;28.85;97088.08;;;;119048;1189;25202;-65
2022/08/17 00:54:29;;;;;;;;;9.50;8.75;;;28.86;97094.10;;;;119034;1190;25622;-65
2022/08/17 00:57:04;;;;;;;;;25.00;19.00;;;28.85;97096.16;;;;119109;1188;26158;-65
2022/08/17 00:59:37;;;;;;;;;17.67;17.67;;;28.85;97099.92;;;;119047;1190;25801;-69
2022/08/17 01:02:08;;;;;;;;;21.25;17.00;;;28.85;97099.00;;;;119092;1188;25198;-68
2022/08/17 01:04:36;;;;;;;;;19.50;15.00;;;28.85;97101.02;;;;119081;1189;25565;-65
2022/08/17 01:07:04;;;;;;;;;21.75;17.75;;;28.84;97098.20;;;;119167;1188;25508;-65
2022/08/17 01:09:33;;;;;;;;;22.75;18.25;;;28.83;97097.89;;;;119064;1189;25914;-65
2022/08/17 01:12:00;;;;;;;;;19.00;14.00;;;28.81;97098.42;;;;119163;1189;25304;-65
2022/08/17 01:14:28;;;;;;;;;15.00;11.00;;;28.79;97099.36;;;;119137;1188;26409;-65
2022/08/17 01:16:56;;;;;;;;;14.50;14.50;;;28.77;97098.98;;;;119183;1188;25394;-64
2022/08/17 01:19:28;;;;;;;;;12.25;11.00;;;28.76;97098.91;;;;119254;1188;24798;-64
2022/08/17 01:22:00;;;;;;;;;12.00;11.25;;;28.75;97101.23;;;;119047;1190;25232;-64
2022/08/17 01:24:28;;;;;;;;;15.25;13.50;;;28.76;97104.62;;;;119047;1188;25551;-64
2022/08/17 01:26:56;;;;;;;;;13.67;12.00;;;28.75;97105.02;;;;119135;1187;25590;-65
2022/08/17 01:29:24;;;;;;;;;13.50;12.00;;;28.74;97102.86;;;;119181;1187;26148;-64
2022/08/17 01:31:55;;;;;;;;;12.25;9.25;;;28.73;97100.05;;;;119175;1188;25733;-65
2022/08/17 01:34:24;;;;;;;;;11.25;10.25;;;28.72;97098.21;;;;119195;1188;25498;-65
2022/08/17 01:37:11;;;;;;;;;11.25;10.25;;;28.76;97098.98;;;;119193;1188;25942;-64
2022/08/17 01:39:55;;;;;;;;;8.25;8.25;;;28.77;97095.52;;;;119201;1188;26522;-64
2022/08/17 01:42:32;;;;;;;;;13.75;11.25;;;28.76;97094.44;;;;119047;1190;25571;-65
2022/08/17 01:45:08;;;;;;;;;13.00;11.33;;;28.76;97094.50;;;;119201;1187;25267;-65
2022/08/17 01:47:36;;;;;;;;;12.00;10.25;;;28.76;97092.23;;;;119187;1187;25623;-65
2022/08/17 01:50:09;;;;;;;;;10.00;9.25;;;28.74;97089.90;;;;119178;1187;25418;-65
2022/08/17 01:52:38;;;;;;;;;9.75;9.50;;;28.73;97089.66;;;;119186;1188;25502;-65
2022/08/17 01:55:06;;;;;;;;;10.33;10.33;;;28.72;97096.13;;;;119189;1187;25568;-65
2022/08/17 01:57:34;;;;;;;;;8.50;8.50;;;28.70;97093.92;;;;119189;1189;24911;-65
2022/08/17 02:00:06;;;;;;;;;10.75;9.00;;;28.69;97091.10;;;;119196;1188;25630;-63
2022/08/17 02:02:33;;;;;;;;;9.33;7.33;;;28.68;97090.21;;;;119198;1188;26239;-65
2022/08/17 02:05:02;;;;;;;;;9.50;9.50;;;28.67;97093.90;;;;119075;1188;24932;-66
2022/08/17 02:07:30;;;;;;;;;9.75;8.25;;;28.65;97095.86;;;;119175;1188;25804;-69
2022/08/17 02:10:14;;;;;;;;;10.50;7.25;;;28.68;97096.96;;;;119165;1189;25198;-71
2022/08/17 02:12:48;;;;;;;;;10.00;8.25;;;28.68;97096.93;;;;119164;1187;25536;-65
2022/08/17 02:15:16;;;;;;;;;9.00;8.00;;;28.66;97099.45;;;;119158;1188;26243;-65
2022/08/17 02:17:44;;;;;;;;;10.00;8.00;;;28.63;97098.20;;;;119165;1188;25149;-65
2022/08/17 02:20:12;;;;;;;;;8.25;7.50;;;28.61;97095.84;;;;119176;1188;24830;-65
2022/08/17 02:22:43;;;;;;;;;10.25;9.50;;;28.59;97094.02;;;;119190;1188;26012;-65
2022/08/17 02:25:15;;;;;;;;;12.50;11.00;;;28.59;97097.34;;;;119183;1187;25156;-65
2022/08/17 02:27:43;;;;;;;;;7.00;7.00;;;28.58;97103.20;;;;119154;1188;24708;-65
2022/08/17 02:30:13;;;;;;;;;10.25;9.00;;;28.57;97103.29;;;;119173;1188;25453;-65
2022/08/17 02:33:00;;;;;;;;;10.75;8.25;;;28.60;97102.64;;;;119185;1188;25644;-65
2022/08/17 02:35:36;;;;;;;;;9.00;8.00;;;28.63;97102.50;;;;119179;1188;26133;-65
2022/08/17 02:38:05;;;;;;;;;10.00;8.25;;;28.62;97095.48;;;;119185;1188;26347;-66
2022/08/17 02:40:33;;;;;;;;;11.50;10.00;;;28.59;97094.63;;;;119173;1188;25006;-65
2022/08/17 02:43:03;;;;;;;;;9.75;9.25;;;28.58;97097.80;;;;119174;1188;25615;-65
2022/08/17 02:45:31;;;;;;;;;9.67;7.67;;;28.56;97100.46;;;;119150;1188;25411;-65
2022/08/17 02:47:59;;;;;;;;;11.75;9.75;;;28.55;97101.44;;;;119146;1188;24795;-64
2022/08/17 02:50:27;;;;;;;;;10.75;9.25;;;28.53;97105.48;;;;119153;1188;26515;-64
2022/08/17 02:52:54;;;;;;;;;9.25;7.50;;;28.51;97107.09;;;;119026;1190;25558;-64
2022/08/17 02:55:33;;;;;;;;;7.50;6.00;;;28.51;97109.92;;;;119151;1186;25923;-64
2022/08/17 02:58:02;;;;;;;;;13.00;10.75;;;28.51;97107.40;;;;119144;1188;25628;-66
2022/08/17 03:00:34;;;;;;;;;12.25;10.00;;;28.50;97106.73;;;;119049;1190;25619;-65
2022/08/17 03:03:03;;;;;;;;;8.50;7.75;;;28.50;97111.48;;;;119165;1187;25604;-65
2022/08/17 03:05:33;;;;;;;;;10.00;8.50;;;28.49;97110.33;;;;119038;1189;25715;-65
2022/08/17 03:08:04;;;;;;;;;9.75;7.50;;;28.48;97110.58;;;;119164;1187;24872;-65
2022/08/17 03:10:32;;;;;;;;;9.75;8.50;;;28.47;97110.34;;;;119026;1189;24907;-65
2022/08/17 03:13:00;;;;;;;;;9.00;6.75;;;28.46;97110.19;;;;119184;1188;26438;-65
2022/08/17 03:15:31;;;;;;;;;9.00;7.75;;;28.45;97114.75;;;;119037;1188;25190;-65
2022/08/17 03:18:00;;;;;;;;;9.25;8.25;;;28.44;97121.39;;;;119209;1187;24725;-65
2022/08/17 03:20:31;;;;;;;;;6.50;6.25;;;28.43;97126.45;;;;119063;1189;25810;-65
2022/08/17 03:22:59;;;;;;;;;9.50;9.25;;;28.44;97122.30;;;;119176;1187;25487;-65
2022/08/17 03:25:33;;;;;;;;;8.75;8.50;;;28.43;97126.11;;;;119167;1187;25635;-67
2022/08/17 03:28:02;;;;;;;;;9.00;7.00;;;28.44;97127.08;;;;119166;1188;25451;-65
2022/08/17 03:30:29;;;;;;;;;12.25;11.00;;;28.43;97128.45;;;;119161;1189;24858;-65
2022/08/17 03:33:01;;;;;;;;;7.50;5.00;;;28.42;97133.55;;;;119130;1188;25051;-65
2022/08/17 03:35:31;;;;;;;;;10.00;9.25;;;28.42;97141.23;;;;119132;1188;25428;-66
2022/08/17 03:37:59;;;;;;;;;5.50;5.50;;;28.41;97141.48;;;;119017;1190;25658;-64
2022/08/17 03:40:29;;;;;;;;;10.50;9.50;;;28.40;97143.70;;;;119148;1189;25912;-64
2022/08/17 03:43:18;;;;;;;;;9.25;9.25;;;28.43;97149.23;;;;119037;1189;25495;-64
2022/08/17 03:57:12;;;;;;;;;9.67;9.67;;;28.49;97167.08;;;;119156;1187;26365;-64
2022/08/17 03:59:41;;;;;;;;;10.50;8.00;;;28.43;97168.95;;;;119149;1188;25122;-66
2022/08/17 04:02:17;;;;;;;;;10.50;10.00;;;28.41;97171.06;;;;119097;1188;25361;-63
2022/08/17 04:04:49;;;;;;;;;10.00;8.00;;;28.43;97174.67;;;;119027;1189;25375;-65
2022/08/17 04:07:19;;;;;;;;;8.00;8.00;;;28.43;97180.75;;;;119136;1188;25596;-63
2022/08/17 04:09:47;;;;;;;;;9.75;9.75;;;28.43;97178.93;;;;119144;1189;29106;-63
2022/08/17 04:12:18;;;;;;;;;9.25;6.75;;;28.44;97178.83;;;;119150;1187;25211;-63
2022/08/17 04:14:46;;;;;;;;;9.75;9.75;;;28.44;97181.85;;;;119129;1188;25473;-62
2022/08/17 04:17:26;;;;;;;;;13.00;10.00;;;28.44;97186.57;;;;119112;1188;25512;-66
2022/08/17 04:19:55;;;;;;;;;13.00;12.00;;;28.47;97179.75;;;;119136;1188;25944;-64
2022/08/17 04:22:23;;;;;;;;;12.50;9.25;;;28.46;97179.05;;;;119133;1188;25499;-64
2022/08/17 04:25:06;;;;;;;;;13.50;11.00;;;28.47;97179.74;;;;119111;1189;24907;-64
2022/08/17 04:27:35;;;;;;;;;9.00;7.50;;;28.47;97179.78;;;;119111;1187;25583;-66
2022/08/17 04:30:04;;;;;;;;;11.50;10.25;;;28.47;97180.11;;;;119138;1188;25624;-68
2022/08/17 04:32:32;;;;;;;;;14.25;12.50;;;28.48;97175.20;;;;118930;1189;25925;-66
2022/08/17 04:35:29;;;;;;;;;13.50;10.25;;;28.62;97174.81;;;;119001;1189;26396;-63
2022/08/17 04:37:59;;;;;;;;;13.75;13.75;;;28.69;97175.16;;;;119017;1189;26308;-68
2022/08/17 04:43:15;;;;;;;;;12.75;10.50;;;28.73;97171.05;;;;119023;1188;25700;-62
2022/08/17 04:45:51;;;;;;;;;12.00;12.00;;;28.75;97173.14;;;;119027;1189;25039;-62
2022/08/17 04:48:30;;;;;;;;;17.25;16.00;;;28.76;97180.54;;;;118997;1188;25964;-61
2022/08/17 04:51:08;;;;;;;;;12.75;10.50;;;28.77;97179.33;;;;119059;1189;25141;-69
2022/08/17 04:53:39;;;;;;;;;15.50;14.00;;;28.81;97180.86;;;;119128;1188;25385;-68
2022/08/17 04:56:08;;;;;;;;;14.75;11.25;;;28.78;97174.73;;;;119123;1187;24997;-63
2022/08/17 04:58:44;;;;;;;;;17.25;16.75;;;28.79;97177.97;;;;119018;1189;25449;-67
2022/08/17 05:01:13;;;;;;;;;16.00;15.00;;;28.80;97182.66;;;;119138;1187;26010;-70
2022/08/17 05:03:42;;;;;;;;;18.50;17.00;;;28.62;97188.06;;;;118977;1188;25183;-67
2022/08/17 05:06:10;;;;;;;;;19.00;16.25;;;28.45;97188.71;;;;119135;1186;26425;-68
2022/08/17 05:08:38;;;;;;;;;12.50;10.75;;;28.31;97187.71;;;;119140;1189;25497;-68
2022/08/17 05:11:06;;;;;;;;;14.00;11.25;;;28.16;97186.77;;;;119134;1188;25133;-68
2022/08/17 05:13:34;;;;;;;;;10.00;10.00;;;28.02;97186.66;;;;119150;1187;25194;-69
2022/08/17 05:16:03;;;;;;;;;12.00;10.00;;;27.97;97184.23;;;;119138;1186;25479;-68
2022/08/17 05:18:31;;;;;;;;;14.67;13.33;;;27.86;97184.95;;;;119310;1190;25510;-69
2022/08/17 05:20:59;;;;;;;;;16.25;13.25;;;28.06;97185.17;;;;119015;1188;25755;-69
2022/08/17 05:23:27;;;;;;;;;14.75;13.25;;;27.95;97184.19;;;;119124;1189;25057;-68
2022/08/17 05:26:11;;;;;;;;;12.50;11.00;;;27.78;97186.06;;;;119130;1187;25965;-68
2022/08/17 05:28:54;;;;;;;;;16.50;15.50;;;27.67;97188.61;;;;119131;1188;26618;-68
2022/08/17 05:31:28;;;;;;;;;14.50;12.00;;;27.58;97189.60;;;;119169;1187;24919;-69
2022/08/17 05:33:56;;;;;;;;;13.50;11.25;;;27.52;97188.48;;;;119040;1189;24948;-68
2022/08/17 05:36:24;;;;;;;;;17.50;14.25;;;27.44;97191.09;;;;119130;1188;25644;-69
2022/08/17 05:39:12;;;;;;;;;13.67;13.00;;;27.36;97194.70;;;;119033;1189;25178;-68
2022/08/17 05:41:47;;;;;;;;;28.00;22.00;;;27.34;97197.20;;;;119105;1188;24902;-68
2022/08/17 05:44:15;;;;;;;;;12.25;11.00;;;27.29;97195.73;;;;119145;1188;26050;-68
2022/08/17 05:46:49;;;;;;;;;25.50;21.50;;;27.24;97199.98;;;;119000;1190;24845;-68
2022/08/17 05:49:23;;;;;;;;;21.00;17.00;;;27.20;97201.20;;;;119024;1189;25804;-71
2022/08/17 05:52:08;;;;;;;;;19.50;14.50;;;27.18;97200.85;;;;119113;1187;24988;-69
2022/08/17 05:55:26;;;;;;;;;14.50;13.75;;;27.16;97202.92;;;;119107;1187;25517;-69
2022/08/17 05:58:13;;;;;;;;;17.50;14.00;;;27.20;97204.13;;;;118848;1190;24821;-67
2022/08/17 06:01:00;;;;;;;;;14.75;14.00;;;27.24;97204.85;;;;119116;1187;25356;-68
2022/08/17 06:03:39;;;;;;;;;12.25;11.25;;;27.23;97204.55;;;;119104;1188;24939;-69
2022/08/17 06:06:23;;;;;;;;;13.50;12.25;;;27.27;97201.55;;;;118986;1189;24903;-68
2022/08/17 06:09:10;;;;;;;;;14.50;13.50;;;27.33;97202.06;;;;119056;1188;25015;-70
2022/08/17 06:11:55;;;;;;;;;18.00;15.25;;;27.33;97201.53;;;;118966;1190;25485;-70
2022/08/17 06:14:55;;;;;;;;;20.00;17.00;;;27.31;97201.02;;;;119034;1188;24771;-70
2022/08/17 06:17:24;;;;;;;;;16.25;14.25;;;27.30;97201.45;;;;119087;1189;25564;-70
2022/08/17 06:19:55;;;;;;;;;17.50;16.50;;;27.28;97199.24;;;;119060;1187;25035;-69
2022/08/17 06:22:32;;;;;;;;;14.50;11.25;;;27.26;97200.92;;;;119110;1187;26152;-69
2022/08/17 06:25:02;;;;;;;;;17.00;13.75;;;27.28;97197.08;;;;119082;1188;26337;-69
2022/08/17 06:27:40;;;;;;;;;15.75;13.25;;;27.30;97197.52;;;;119066;1188;25248;-69
2022/08/17 06:30:16;;;;;;;;;17.50;15.00;;;27.27;97193.76;;;;119106;1187;25277;-70
2022/08/17 06:32:45;;;;;;;;;14.33;14.33;;;27.26;97189.25;;;;119002;1188;25748;-69
2022/08/17 06:35:18;;;;;;;;;21.00;16.00;;;27.27;97189.53;;;;119072;1189;25175;-70
2022/08/17 06:38:05;;;;;;;;;17.75;16.25;;;27.25;97188.30;;;;119084;1188;25269;-70
2022/08/17 06:40:54;;;;;;;;;16.00;14.00;;;27.27;97189.65;;;;119006;1189;25321;-69
2022/08/17 06:43:39;;;;;;;;;15.25;15.00;;;27.30;97184.50;;;;119063;1189;24840;-69
2022/08/17 06:46:20;;;;;;;;;14.25;12.00;;;27.29;97186.67;;;;118965;1189;26044;-69
2022/08/17 06:49:15;;;;;;;;;14.50;13.75;;;27.29;97186.39;;;;118992;1190;26349;-69
2022/08/17 06:52:13;;;;;;;;;14.67;14.00;;;27.31;97187.87;;;;119080;1188;25153;-69
2022/08/17 06:55:05;;;;;;;;;15.25;14.75;;;27.42;97189.77;;;;118978;1190;25231;-69
2022/08/17 06:57:37;;;;;;;;;13.75;13.00;;;27.44;97194.33;;;;119083;1188;25388;-69
2022/08/17 07:00:22;;;;;;;;;16.50;15.50;;;27.45;97197.84;;;;119085;1189;25906;-69
2022/08/17 07:03:01;;;;;;;;;17.75;13.75;;;27.48;97201.49;;;;119107;1188;25916;-69
2022/08/17 07:05:41;;;;;;;;;17.25;15.00;;;27.49;97206.37;;;;118975;1188;25757;-69
2022/08/17 07:08:21;;;;;;;;;14.50;13.75;;;27.52;97210.11;;;;119115;1188;25347;-69
2022/08/17 07:10:56;;;;;;;;;12.50;11.50;;;27.53;97215.23;;;;119090;1186;25175;-69
2022/08/17 07:13:43;;;;;;;;;11.75;11.00;;;27.52;97216.50;;;;119011;1189;26154;-69
2022/08/17 07:16:27;;;;;;;;;15.00;12.00;;;27.55;97221.08;;;;119083;1188;24928;-69
2022/08/17 07:18:56;;;;;;;;;16.33;12.67;;;27.58;97222.13;;;;119131;1187;25107;-68
2022/08/17 07:21:38;;;;;;;;;14.75;12.50;;;27.57;97221.20;;;;118991;1189;25594;-68
2022/08/17 07:24:43;;;;;;;;;19.67;18.33;;;27.56;97221.45;;;;119110;1188;24818;-69
2022/08/17 07:27:22;;;;;;;;;22.25;16.50;;;27.64;97219.23;;;;119059;1187;25256;-68
2022/08/17 07:29:56;;;;;;;;;17.25;13.75;;;27.68;97221.44;;;;119089;1188;25391;-69
2022/08/17 07:32:30;;;;;;;;;17.00;15.67;;;27.67;97218.35;;;;119102;1187;25655;-69
2022/08/17 07:34:59;;;;;;;;;13.75;12.75;;;27.68;97220.01;;;;119121;1187;25849;-69
2022/08/17 07:37:31;;;;;;;;;18.25;17.00;;;27.69;97216.70;;;;119105;1187;24918;-69
2022/08/17 07:40:14;;;;;;;;;18.25;14.25;;;27.71;97212.90;;;;118968;1189;25942;-70
2022/08/17 07:43:06;;;;;;;;;19.50;16.25;;;27.80;97212.30;;;;119105;1188;26209;-69
2022/08/17 07:48:39;;;;;;;;;12.00;11.50;;;27.93;97213.10;;;;119074;1188;25544;-69
2022/08/17 07:51:38;;;;;;;;;10.50;10.25;;;27.93;97212.71;;;;118991;1189;25041;-69
2022/08/17 07:54:15;;;;;;;;;17.00;15.50;;;27.98;97217.49;;;;118843;1190;25331;-69
2022/08/17 07:56:51;;;;;;;;;18.50;14.25;;;28.02;97215.70;;;;119105;1188;25068;-69
2022/08/17 07:59:24;;;;;;;;;18.00;15.25;;;28.04;97214.60;;;;119078;1187;25157;-69
2022/08/17 08:02:04;;;;;;;;;13.67;10.67;;;28.07;97212.48;;;;119108;1188;26419;-69
2022/08/17 08:04:45;;;;;;;;;17.50;12.25;;;28.10;97211.83;;;;119068;1187;26170;-69
2022/08/17 08:07:34;;;;;;;;;14.50;11.50;;;28.19;97213.17;;;;118973;1189;25415;-69
2022/08/17 08:10:15;;;;;;;;;10.25;9.25;;;28.23;97211.77;;;;119075;1188;25681;-69
2022/08/17 08:12:48;;;;;;;;;18.25;14.75;;;28.24;97213.04;;;;119008;1188;26376;-69
2022/08/17 08:15:24;;;;;;;;;8.75;8.75;;;28.24;97210.46;;;;118984;1189;24798;-69
2022/08/17 08:18:01;;;;;;;;;9.67;9.33;;;28.26;97210.47;;;;119060;1189;25528;-67
2022/08/17 08:20:54;;;;;;;;;13.75;12.00;;;28.26;97210.34;;;;119019;1188;24743;-71
2022/08/17 08:23:56;;;;;;;;;13.75;13.00;;;28.33;97206.30;;;;118946;1189;25278;-69
2022/08/17 08:26:32;;;;;;;;;16.75;14.50;;;28.43;97207.50;;;;119045;1188;25474;-64
2022/08/17 08:29:18;;;;;;;;;12.75;12.00;;;28.43;97207.27;;;;119099;1188;25967;-67
2022/08/17 08:32:04;;;;;;;;;13.75;13.75;;;28.47;97213.15;;;;119089;1188;25503;-71
2022/08/17 08:34:55;;;;;;;;;15.00;15.00;;;28.45;97211.95;;;;119154;1187;25514;-66
2022/08/17 08:37:51;;;;;;;;;16.25;14.25;;;28.51;97215.74;;;;119090;1188;25644;-66
2022/08/17 08:40:54;;;;;;;;;16.25;14.00;;;28.54;97213.36;;;;119087;1188;24783;-64
2022/08/17 08:43:31;;;;;;;;;15.25;13.25;;;28.60;97212.48;;;;118746;1189;25434;-64
2022/08/17 08:46:25;;;;;;;;;15.25;13.25;;;28.62;97209.94;;;;118918;1189;25346;-70
2022/08/17 08:49:21;;;;;;;;;14.75;11.25;;;28.68;97209.35;;;;119090;1188;25026;-63
2022/08/17 08:52:29;;;;;;;;;15.25;14.25;;;28.74;97201.69;;;;119076;1187;25175;-66
2022/08/17 08:55:07;;;;;;;;;22.00;16.00;;;28.78;97203.31;;;;118964;1189;25607;-64
2022/08/17 08:57:43;;;;;;;;;13.50;13.50;;;28.83;97206.99;;;;119087;1187;24973;-64
2022/08/17 09:00:18;;;;;;;;;18.25;16.00;;;28.84;97204.73;;;;119092;1188;25564;-65
2022/08/17 09:03:06;;;;;;;;;17.00;16.25;;;28.83;97203.05;;;;119118;1188;25640;-64
2022/08/17 09:06:07;;;;;;;;;23.50;14.75;;;28.86;97203.11;;;;119097;1188;25201;-67
2022/08/17 09:09:08;;;;;;;;;16.50;15.00;;;28.93;97199.98;;;;118947;1190;25588;-65
2022/08/17 09:11:53;;;;;;;;;17.50;17.00;;;28.93;97205.77;;;;119131;1188;26339;-66
2022/08/17 09:14:35;;;;;;;;;19.25;19.25;;;28.92;97202.87;;;;119131;1189;25332;-67
2022/08/17 09:17:18;;;;;;;;;17.25;15.25;;;28.91;97200.64;;;;118945;1189;25242;-68
2022/08/17 09:19:58;;;;;;;;;20.67;16.00;;;28.93;97201.28;;;;119134;1188;25265;-64
2022/08/17 09:22:37;;;;;;;;;22.00;19.25;;;28.92;97201.80;;;;119117;1188;25681;-64
2022/08/17 09:25:08;;;;;;;;;20.75;17.50;;;28.95;97207.16;;;;118989;1188;25323;-64
2022/08/17 09:27:49;;;;;;;;;19.50;19.50;;;28.95;97203.12;;;;119102;1187;24809;-65
2022/08/17 09:30:18;;;;;;;;;15.25;14.75;;;28.97;97209.88;;;;119145;1188;25549;-68
2022/08/17 09:32:50;;;;;;;;;19.00;15.75;;;28.99;97208.27;;;;119005;1188;25332;-66
2022/08/17 09:35:28;;;;;;;;;20.25;18.75;;;29.01;97209.05;;;;119112;1188;24726;-65
2022/08/17 09:38:27;;;;;;;;;22.00;21.00;;;29.07;97213.02;;;;119119;1187;26247;-65
2022/08/17 09:41:13;;;;;;;;;20.00;18.50;;;29.12;97208.82;;;;119134;1188;25544;-64
2022/08/17 09:44:06;;;;;;;;;19.33;19.33;;;29.15;97216.56;;;;119100;1187;25011;-68
2022/08/17 09:47:16;;;;;;;;;20.75;18.75;;;29.23;97213.21;;;;118960;1189;24994;-65
2022/08/17 09:49:59;;;;;;;;;22.25;17.50;;;29.28;97215.72;;;;119248;1188;25147;-66
2022/08/17 09:52:28;;;;;;;;;20.75;19.75;;;29.29;97221.54;;;;119096;1187;25363;-67
2022/08/17 09:54:58;;;;;;;;;14.25;13.25;;;29.31;97219.77;;;;119119;1188;26222;-65
2022/08/17 09:57:51;;;;;;;;;17.75;14.50;;;29.29;97224.36;;;;118964;1189;25196;-68
2022/08/17 10:00:23;;;;;;;;;23.75;21.00;;;29.32;97220.23;;;;119118;1188;26840;-66
2022/08/17 10:02:57;;;;;;;;;21.50;17.50;;;29.31;97224.80;;;;119014;1188;25760;-66
2022/08/17 10:05:30;;;;;;;;;19.25;16.50;;;29.31;97215.35;;;;118994;1189;25595;-65
2022/08/17 10:08:21;;;;;;;;;17.25;15.50;;;29.32;97214.73;;;;119109;1187;25031;-67
2022/08/17 10:11:04;;;;;;;;;21.00;18.75;;;29.37;97213.09;;;;119121;1187;25663;-64
2022/08/17 10:14:03;;;;;;;;;20.50;20.50;;;29.41;97208.19;;;;119118;1188;25535;-67
2022/08/17 10:16:57;;;;;;;;;24.50;20.75;;;29.55;97211.47;;;;118997;1190;25287;-69
2022/08/17 10:19:53;;;;;;;;;25.00;20.25;;;29.59;97205.77;;;;119005;1189;26191;-70
2022/08/17 10:28:28;;;;;;;;;26.00;21.00;;;29.63;97204.41;;;;119109;1188;25303;-72
2022/08/17 10:31:01;;;;;;;;;25.50;20.00;;;29.62;97201.10;;;;119081;1188;24988;-73
2022/08/17 10:34:05;;;;;;;;;20.50;17.50;;;29.65;97199.70;;;;118990;1189;25874;-74
2022/08/17 10:37:24;;;;;;;;;19.50;19.00;;;29.69;97201.84;;;;119090;1189;25697;-72
2022/08/17 10:40:01;;;;;;;;;18.75;16.50;;;29.73;97208.39;;;;119091;1188;25414;-70
2022/08/17 10:42:47;;;;;;;;;16.25;14.00;;;29.71;97208.14;;;;119098;1187;25483;-72
2022/08/17 10:45:25;;;;;;;;;10.25;10.25;;;29.74;97199.33;;;;119090;1188;25011;-71
2022/08/17 10:48:04;;;;;;;;;17.25;15.50;;;29.77;97197.06;;;;119100;1187;25743;-68
2022/08/17 10:50:43;;;;;;;;;18.50;16.25;;;29.79;97197.90;;;;119078;1187;25176;-73
2022/08/17 10:53:30;;;;;;;;;17.50;15.25;;;29.78;97197.29;;;;119065;1189;25563;-71
2022/08/17 10:56:10;;;;;;;;;17.50;17.00;;;29.82;97193.88;;;;118953;1189;25274;-71
2022/08/17 10:58:57;;;;;;;;;16.50;16.00;;;29.85;97195.17;;;;118895;1190;25073;-70
2022/08/17 11:01:31;;;;;;;;;16.67;13.00;;;29.85;97188.60;;;;119042;1188;25144;-72
2022/08/17 11:04:17;;;;;;;;;17.00;16.00;;;29.86;97188.03;;;;119026;1187;25520;-71
2022/08/17 11:06:50;;;;;;;;;16.50;14.50;;;29.87;97187.13;;;;119002;1189;25640;-68
2022/08/17 11:09:40;;;;;;;;;16.25;15.75;;;29.87;97181.23;;;;118999;1187;25583;-65
2022/08/17 11:12:08;;;;;;;;;23.25;17.00;;;29.93;97184.41;;;;119033;1188;25196;-66
2022/08/17 11:15:08;;;;;;;;;13.50;13.25;;;29.93;97183.28;;;;119012;1187;24735;-63
2022/08/17 11:17:36;;;;;;;;;16.00;15.75;;;30.04;97184.50;;;;118813;1191;25535;-66
2022/08/17 11:20:24;;;;;;;;;16.25;15.00;;;30.08;97183.21;;;;119028;1188;25422;-66
2022/08/17 11:23:17;;;;;;;;;14.50;13.00;;;30.14;97187.65;;;;119030;1187;25162;-65
2022/08/17 11:25:51;;;;;;;;;14.25;14.25;;;30.11;97191.17;;;;119107;1188;25388;-66
2022/08/17 11:28:26;;;;;;;;;16.25;15.00;;;30.12;97190.65;;;;118991;1187;25502;-65
2022/08/17 11:30:58;;;;;;;;;19.25;19.00;;;30.13;97187.45;;;;119039;1188;24867;-65
2022/08/17 11:33:35;;;;;;;;;18.33;15.33;;;30.11;97188.65;;;;119040;1188;25120;-60
2022/08/17 11:36:13;;;;;;;;;18.33;17.00;;;30.14;97181.23;;;;119000;1188;25076;-65
2022/08/17 11:39:05;;;;;;;;;20.25;17.00;;;30.16;97179.36;;;;119042;1189;25449;-61
2022/08/17 11:41:48;;;;;;;;;19.50;17.00;;;30.22;97170.95;;;;119022;1189;24767;-67
2022/08/17 11:44:37;;;;;;;;;15.25;15.25;;;30.25;97171.08;;;;118863;1190;25444;-67
2022/08/17 11:53:05;;;;;;;;;14.50;12.50;;;30.34;97166.77;;;;119102;1187;25109;-63
2022/08/17 11:55:36;;;;;;;;;21.25;18.00;;;30.30;97167.70;;;;118982;1190;25374;-63
2022/08/17 11:58:29;;;;;;;;;15.00;11.75;;;30.32;97171.50;;;;119087;1188;25953;-68
2022/08/17 12:01:10;;;;;;;;;20.75;17.75;;;30.35;97159.35;;;;118987;1190;25224;-65
2022/08/17 12:03:47;;;;;;;;;17.75;17.00;;;30.37;97155.54;;;;119084;1188;26174;-66
2022/08/17 12:06:26;;;;;;;;;17.50;16.00;;;30.44;97148.50;;;;118999;1189;25066;-67
2022/08/17 12:09:13;;;;;;;;;17.75;16.00;;;30.45;97147.23;;;;119057;1188;24881;-68
2022/08/17 12:11:53;;;;;;;;;18.50;13.50;;;30.50;97148.45;;;;119009;1189;25144;-67
2022/08/17 12:14:49;;;;;;;;;15.50;15.50;;;30.62;97137.12;;;;119051;1188;24791;-64
2022/08/17 12:17:36;;;;;;;;;20.00;17.00;;;30.68;97142.13;;;;119055;1188;25641;-62
2022/08/17 12:20:36;;;;;;;;;19.75;16.50;;;30.76;97145.48;;;;119013;1189;25367;-67
2022/08/17 12:23:23;;;;;;;;;21.00;19.00;;;30.83;97140.02;;;;119065;1189;24872;-66
2022/08/17 12:25:58;;;;;;;;;17.25;13.00;;;30.83;97138.55;;;;119047;1189;25238;-63
2022/08/17 12:28:27;;;;;;;;;17.75;17.75;;;30.80;97138.45;;;;119067;1188;26521;-64
2022/08/17 12:31:00;;;;;;;;;18.50;18.50;;;30.82;97138.19;;;;119047;1189;26133;-65
2022/08/17 12:33:28;;;;;;;;;16.75;16.50;;;30.83;97136.47;;;;118969;1190;25326;-67
2022/08/17 12:36:01;;;;;;;;;19.25;17.50;;;30.85;97131.67;;;;118975;1190;25799;-67
2022/08/17 12:38:33;;;;;;;;;19.50;18.25;;;30.87;97141.14;;;;118980;1189;25663;-67
2022/08/17 12:44:01;;;;;;;;;14.25;14.25;;;30.93;97143.51;;;;118986;1190;25350;-67
2022/08/17 12:46:33;;;;;;;;;18.00;16.00;;;30.96;97136.48;;;;118992;1188;25144;-67
2022/08/17 12:49:30;;;;;;;;;19.50;18.25;;;30.96;97139.40;;;;118993;1189;26474;-66
2022/08/17 12:52:17;;;;;;;;;19.25;15.00;;;31.09;97134.59;;;;118879;1189;25583;-62
2022/08/17 12:55:11;;;;;;;;;16.50;16.25;;;31.10;97132.10;;;;118950;1190;25331;-61
2022/08/17 12:57:39;;;;;;;;;17.25;15.00;;;31.16;97132.95;;;;118982;1189;25079;-65
2022/08/17 13:00:09;;;;;;;;;20.25;15.75;;;31.14;97132.80;;;;118986;1189;25093;-66
2022/08/17 13:02:42;;;;;;;;;18.25;17.50;;;31.12;97126.11;;;;118979;1189;26447;-64
2022/08/17 13:05:19;;;;;;;;;15.75;14.00;;;31.08;97134.35;;;;118988;1189;25234;-63
2022/08/17 13:07:47;;;;;;;;;18.75;16.75;;;31.06;97132.70;;;;118988;1190;25332;-67
2022/08/17 13:10:23;;;;;;;;;15.75;15.75;;;31.04;97130.23;;;;118996;1189;25681;-64
2022/08/17 13:13:02;;;;;;;;;17.75;15.25;;;31.03;97130.41;;;;118985;1188;24957;-64
2022/08/17 13:15:36;;;;;;;;;15.75;15.25;;;31.02;97132.21;;;;118986;1190;26132;-64